createdAt,value
2019-05-28T00:00:39.799Z,15.00
2019-05-28T00:03:08.467Z,15.00
2019-05-28T00:05:37.040Z,15.00
2019-05-28T00:08:05.798Z,15.00
2019-05-28T00:10:34.313Z,14.90
2019-05-28T00:13:02.984Z,14.90
2019-05-28T00:15:31.556Z,15.00
2019-05-28T00:18:00.152Z,15.00
2019-05-28T00:20:28.919Z,14.90
2019-05-28T00:22:57.525Z,14.90
2019-05-28T00:25:29.294Z,14.90
2019-05-28T00:27:56.374Z,14.90
2019-05-28T00:30:25.203Z,14.90
2019-05-28T00:32:53.776Z,14.90
2019-05-28T00:35:22.742Z,15.00
2019-05-28T00:37:51.348Z,15.00
2019-05-28T00:40:20.239Z,15.00
2019-05-28T00:42:48.894Z,15.00
2019-05-28T00:45:18.088Z,15.00
2019-05-28T00:47:46.755Z,14.90
2019-05-28T00:50:16.166Z,14.90
2019-05-28T00:52:44.740Z,14.90
2019-05-28T00:55:14.561Z,14.90
2019-05-28T00:57:45.351Z,15.00
2019-05-28T01:00:15.420Z,15.00
2019-05-28T01:02:44.161Z,14.90
2019-05-28T01:05:12.947Z,14.90
2019-05-28T01:07:41.593Z,14.90
2019-05-28T01:10:11.111Z,14.90
2019-05-28T01:12:39.732Z,14.80
2019-05-28T01:15:09.051Z,14.90
2019-05-28T01:17:37.949Z,14.90
2019-05-28T01:20:08.731Z,14.90
2019-05-28T01:22:37.324Z,14.90
2019-05-28T01:25:06.915Z,14.90
2019-05-28T01:27:35.495Z,14.80
2019-05-28T01:30:06.321Z,14.80
2019-05-28T01:32:34.953Z,14.80
2019-05-28T01:35:04.665Z,14.90
2019-05-28T01:37:33.259Z,14.90
2019-05-28T01:40:01.820Z,14.90
2019-05-28T01:42:30.403Z,14.90
2019-05-28T01:44:58.975Z,14.80
2019-05-28T01:47:27.568Z,14.80
2019-05-28T01:49:56.145Z,14.80
2019-05-28T01:52:24.710Z,14.80
2019-05-28T01:54:53.293Z,14.80
2019-05-28T01:57:21.883Z,14.80
2019-05-28T01:59:50.524Z,14.80
2019-05-28T02:02:19.168Z,14.80
2019-05-28T02:04:47.751Z,14.80
2019-05-28T02:07:16.403Z,14.80
2019-05-28T02:09:45.005Z,14.80
2019-05-28T02:12:13.555Z,14.80
2019-05-28T02:14:42.165Z,14.80
2019-05-28T02:17:10.729Z,14.80
2019-05-28T02:19:39.594Z,14.80
2019-05-28T02:22:08.178Z,14.80
2019-05-28T02:24:36.744Z,14.70
2019-05-28T02:27:05.362Z,14.70
2019-05-28T02:29:33.957Z,14.70
2019-05-28T02:32:02.919Z,14.70
2019-05-28T02:34:31.505Z,14.70
2019-05-28T02:37:00.082Z,14.70
2019-05-28T02:39:28.736Z,14.70
2019-05-28T02:41:57.313Z,14.70
2019-05-28T02:44:25.899Z,14.70
2019-05-28T02:46:54.465Z,14.70
2019-05-28T02:49:23.138Z,14.70
2019-05-28T02:51:52.030Z,14.70
2019-05-28T02:54:20.700Z,14.70
2019-05-28T02:56:51.473Z,14.70
2019-05-28T02:59:20.043Z,14.70
2019-05-28T03:01:50.830Z,14.70
2019-05-28T03:04:22.892Z,14.70
2019-05-28T03:06:53.986Z,14.70
2019-05-28T03:09:25.761Z,14.70
2019-05-28T03:11:54.310Z,14.70
2019-05-28T03:14:22.902Z,14.70
2019-05-28T03:16:54.571Z,14.70
2019-05-28T03:19:25.780Z,14.70
2019-05-28T03:21:57.066Z,14.70
2019-05-28T03:24:27.280Z,14.70
2019-05-28T03:26:55.986Z,14.70
2019-05-28T03:29:24.710Z,14.70
2019-05-28T03:32:07.254Z,14.70
2019-05-28T03:34:23.690Z,14.70
2019-05-28T03:36:54.115Z,14.70
2019-05-28T03:39:23.770Z,14.70
2019-05-28T03:41:52.434Z,14.70
2019-05-28T03:44:21.316Z,14.70
2019-05-28T03:46:49.956Z,14.60
2019-05-28T03:49:18.549Z,14.60
2019-05-28T03:51:47.107Z,14.50
2019-05-28T03:54:15.961Z,14.50
2019-05-28T03:56:44.555Z,14.50
2019-05-28T03:59:13.136Z,14.40
2019-05-28T04:01:41.988Z,14.40
2019-05-28T04:04:10.562Z,14.40
2019-05-28T04:06:39.163Z,14.40
2019-05-28T04:09:09.034Z,14.40
2019-05-28T04:11:44.717Z,14.40
2019-05-28T04:14:08.044Z,14.40
2019-05-28T04:16:36.690Z,14.40
2019-05-28T04:19:05.545Z,14.40
2019-05-28T04:21:34.112Z,14.40
2019-05-28T04:24:02.771Z,14.40
2019-05-28T04:26:31.359Z,14.40
2019-05-28T04:29:00.203Z,14.50
2019-05-28T04:31:28.876Z,14.50
2019-05-28T04:33:58.350Z,14.40
2019-05-28T04:36:27.292Z,14.40
2019-05-28T04:38:56.199Z,14.40
2019-05-28T04:41:24.770Z,14.40
2019-05-28T04:43:53.396Z,14.40
2019-05-28T04:46:22.355Z,14.40
2019-05-28T04:48:50.916Z,14.40
2019-05-28T04:51:19.543Z,14.50
2019-05-28T04:53:48.096Z,14.50
2019-05-28T04:56:16.678Z,14.50
2019-05-28T04:58:45.322Z,14.50
2019-05-28T05:01:13.906Z,14.60
2019-05-28T05:03:42.482Z,14.60
2019-05-28T05:06:11.053Z,14.50
2019-05-28T05:08:39.642Z,14.50
2019-05-28T05:11:08.285Z,14.50
2019-05-28T05:13:36.858Z,14.60
2019-05-28T05:16:05.428Z,14.50
2019-05-28T05:18:34.194Z,14.60
2019-05-28T05:21:02.795Z,14.50
2019-05-28T05:23:31.370Z,14.50
2019-05-28T05:26:00.298Z,14.50
2019-05-28T05:28:28.871Z,14.50
2019-05-28T05:30:57.767Z,14.50
2019-05-28T05:33:26.356Z,14.50
2019-05-28T05:35:55.222Z,14.50
2019-05-28T05:38:23.988Z,14.50
2019-05-28T05:40:52.553Z,14.50
2019-05-28T05:43:21.290Z,14.50
2019-05-28T05:45:49.914Z,14.50
2019-05-28T05:48:21.695Z,14.50
2019-05-28T05:50:50.290Z,14.50
2019-05-28T05:53:19.086Z,14.50
2019-05-28T05:55:48.087Z,14.50
2019-05-28T05:58:16.688Z,14.50
2019-05-28T06:00:45.271Z,14.50
2019-05-28T06:03:13.865Z,14.50
2019-05-28T06:05:42.442Z,14.50
2019-05-28T06:08:11.305Z,14.50
2019-05-28T06:10:40.027Z,14.50
2019-05-28T06:13:08.644Z,14.50
2019-05-28T06:15:37.202Z,14.50
2019-05-28T06:18:05.959Z,14.50
2019-05-28T06:20:34.520Z,14.50
2019-05-28T06:23:03.127Z,14.60
2019-05-28T06:25:32.016Z,14.50
2019-05-28T06:28:00.600Z,14.60
2019-05-28T06:30:29.254Z,14.60
2019-05-28T06:32:57.806Z,14.60
2019-05-28T06:35:26.456Z,14.60
2019-05-28T06:37:55.042Z,14.60
2019-05-28T06:40:23.961Z,14.60
2019-05-28T06:42:52.575Z,14.60
2019-05-28T06:45:21.501Z,14.60
2019-05-28T06:47:50.075Z,14.60
2019-05-28T06:50:18.913Z,14.60
2019-05-28T06:52:47.460Z,14.70
2019-05-28T06:55:16.286Z,14.70
2019-05-28T06:57:45.234Z,14.70
2019-05-28T07:00:14.222Z,14.70
2019-05-28T07:02:42.888Z,14.70
2019-05-28T07:05:11.626Z,14.70
2019-05-28T07:07:40.254Z,14.70
2019-05-28T07:10:09.375Z,14.80
2019-05-28T07:12:37.990Z,14.80
2019-05-28T07:15:08.303Z,14.80
2019-05-28T07:17:36.901Z,14.80
2019-05-28T07:20:09.056Z,14.80
2019-05-28T07:22:37.720Z,14.90
2019-05-28T07:25:07.697Z,14.90
2019-05-28T07:27:36.267Z,14.90
2019-05-28T07:30:08.230Z,15.00
2019-05-28T07:32:36.890Z,15.00
2019-05-28T07:35:06.505Z,15.00
2019-05-28T07:37:35.112Z,15.20
2019-05-28T07:40:06.292Z,15.20
2019-05-28T07:42:34.941Z,15.20
2019-05-28T07:45:03.877Z,15.30
2019-05-28T07:47:32.407Z,15.30
2019-05-28T07:50:01.014Z,15.30
2019-05-28T07:52:29.604Z,15.30
2019-05-28T07:54:58.164Z,15.30
2019-05-28T07:57:27.187Z,15.30
2019-05-28T07:59:55.816Z,15.30
2019-05-28T08:02:24.492Z,15.30
2019-05-28T08:04:53.401Z,15.30
2019-05-28T08:07:22.315Z,15.30
2019-05-28T08:09:50.915Z,15.30
2019-05-28T08:12:19.955Z,15.30
2019-05-28T08:14:48.540Z,15.20
2019-05-28T08:17:17.483Z,15.20
2019-05-28T08:19:46.115Z,15.10
2019-05-28T08:22:14.868Z,15.10
2019-05-28T08:24:43.531Z,15.20
2019-05-28T08:27:12.254Z,15.30
2019-05-28T08:29:40.927Z,15.40
2019-05-28T08:32:09.663Z,15.40
2019-05-28T08:34:38.239Z,15.40
2019-05-28T08:37:07.054Z,15.30
2019-05-28T08:39:35.808Z,15.30
2019-05-28T08:42:04.862Z,15.30
2019-05-28T08:44:33.525Z,15.30
2019-05-28T08:47:02.099Z,15.30
2019-05-28T08:49:30.669Z,15.30
2019-05-28T08:51:59.247Z,15.40
2019-05-28T08:54:27.831Z,15.30
2019-05-28T08:56:56.708Z,15.30
2019-05-28T08:59:25.749Z,15.20
2019-05-28T09:01:54.398Z,15.20
2019-05-28T09:04:22.996Z,15.20
2019-05-28T09:06:51.564Z,15.20
2019-05-28T09:09:20.165Z,15.20
2019-05-28T09:11:48.796Z,15.30
2019-05-28T09:14:17.386Z,15.30
2019-05-28T09:16:46.013Z,15.40
2019-05-28T09:19:14.603Z,15.50
2019-05-28T09:21:43.502Z,15.60
2019-05-28T09:24:12.088Z,15.60
2019-05-28T09:26:41.103Z,15.60
2019-05-28T09:29:09.738Z,15.60
2019-05-28T09:31:38.354Z,15.60
2019-05-28T09:34:06.969Z,15.70
2019-05-28T09:36:35.547Z,15.60
2019-05-28T09:39:07.007Z,15.50
2019-05-28T09:41:35.575Z,15.40
2019-05-28T09:44:05.286Z,15.40
2019-05-28T09:46:33.924Z,15.50
2019-05-28T09:49:02.476Z,15.50
2019-05-28T09:51:31.087Z,15.40
2019-05-28T09:53:59.663Z,15.40
2019-05-28T09:56:32.573Z,15.50
2019-05-28T09:58:59.270Z,15.40
2019-05-28T10:01:28.177Z,15.30
2019-05-28T10:03:56.735Z,15.20
2019-05-28T10:06:36.774Z,15.20
2019-05-28T10:08:55.623Z,15.20
2019-05-28T10:11:24.219Z,15.30
2019-05-28T10:13:52.806Z,15.30
2019-05-28T10:16:21.374Z,15.40
2019-05-28T10:18:49.954Z,15.40
2019-05-28T10:21:19.498Z,15.50
2019-05-28T10:23:48.130Z,15.50
2019-05-28T10:26:17.013Z,15.50
2019-05-28T10:28:45.749Z,15.60
2019-05-28T10:31:14.694Z,15.50
2019-05-28T10:33:43.292Z,15.50
2019-05-28T10:36:11.844Z,15.40
2019-05-28T10:38:40.505Z,15.40
2019-05-28T10:41:09.122Z,15.30
2019-05-28T10:43:37.764Z,15.30
2019-05-28T10:46:07.240Z,15.30
2019-05-28T10:48:36.219Z,15.20
2019-05-28T10:51:05.330Z,15.30
2019-05-28T10:53:33.919Z,15.20
2019-05-28T10:56:02.538Z,15.20
2019-05-28T10:58:31.460Z,15.30
2019-05-28T11:01:00.012Z,15.40
2019-05-28T11:03:28.587Z,15.40
2019-05-28T11:05:57.233Z,15.50
2019-05-28T11:08:25.803Z,15.60
2019-05-28T11:10:54.386Z,15.60
2019-05-28T11:13:22.989Z,15.60
2019-05-28T11:15:51.580Z,15.70
2019-05-28T11:18:20.183Z,15.70
2019-05-28T11:20:48.734Z,15.70
2019-05-28T11:23:18.149Z,15.80
2019-05-28T11:25:46.813Z,15.90
2019-05-28T11:28:15.384Z,15.90
2019-05-28T11:30:43.988Z,15.90
2019-05-28T11:33:12.825Z,16.00
2019-05-28T11:35:41.829Z,16.00
2019-05-28T11:38:10.609Z,16.10
2019-05-28T11:40:39.176Z,16.10
2019-05-28T11:43:07.825Z,16.20
2019-05-28T11:45:36.486Z,16.30
2019-05-28T11:48:05.618Z,16.30
2019-05-28T11:50:34.276Z,16.30
2019-05-28T11:53:03.128Z,16.30
2019-05-28T11:55:31.792Z,16.30
2019-05-28T11:58:00.388Z,16.40
2019-05-28T12:00:29.713Z,16.50
2019-05-28T12:02:58.458Z,16.50
2019-05-28T12:05:27.594Z,16.60
2019-05-28T12:07:56.233Z,16.50
2019-05-28T12:10:26.062Z,16.30
2019-05-28T12:12:54.645Z,16.10
2019-05-28T12:15:23.845Z,16.00
2019-05-28T12:17:52.498Z,16.10
2019-05-28T12:20:22.143Z,16.20
2019-05-28T12:23:09.068Z,16.30
2019-05-28T12:25:21.575Z,16.40
2019-05-28T12:27:50.157Z,16.50
2019-05-28T12:30:19.283Z,16.50
2019-05-28T12:32:47.854Z,16.60
2019-05-28T12:35:28.196Z,16.70
2019-05-28T12:37:50.575Z,16.90
2019-05-28T12:40:19.705Z,17.00
2019-05-28T12:42:48.643Z,17.10
2019-05-28T12:45:33.837Z,17.10
2019-05-28T12:48:07.133Z,17.10
2019-05-28T12:50:20.906Z,16.90
2019-05-28T12:52:49.331Z,16.70
2019-05-28T12:55:20.141Z,16.60
2019-05-28T12:57:48.760Z,16.70
2019-05-28T13:00:19.904Z,16.70
2019-05-28T13:02:48.868Z,16.80
2019-05-28T13:05:20.179Z,16.80
2019-05-28T13:08:06.469Z,16.70
2019-05-28T13:10:19.387Z,16.70
2019-05-28T13:12:48.053Z,16.80
2019-05-28T13:15:17.184Z,16.80
2019-05-28T13:17:45.913Z,16.80
2019-05-28T13:20:17.792Z,16.90
2019-05-28T13:22:46.983Z,17.00
2019-05-28T13:25:15.809Z,17.20
2019-05-28T13:27:44.479Z,17.30
2019-05-28T13:30:14.605Z,17.40
2019-05-28T13:32:43.453Z,17.30
2019-05-28T13:35:14.195Z,17.20
2019-05-28T13:37:42.773Z,17.30
2019-05-28T13:40:13.141Z,17.30
2019-05-28T13:42:41.797Z,17.30
2019-05-28T13:45:11.107Z,17.30
2019-05-28T13:47:39.871Z,17.30
2019-05-28T13:50:10.106Z,17.30
2019-05-28T13:52:38.933Z,17.30
2019-05-28T13:55:08.685Z,17.20
2019-05-28T13:57:39.438Z,17.20
2019-05-28T14:00:10.436Z,17.30
2019-05-28T14:02:39.543Z,17.30
2019-05-28T14:05:09.067Z,17.30
2019-05-28T14:07:38.091Z,17.30
2019-05-28T14:10:10.255Z,17.30
2019-05-28T14:12:38.834Z,17.20
2019-05-28T14:15:08.263Z,17.10
2019-05-28T14:17:36.830Z,16.90
2019-05-28T14:20:07.625Z,16.90
2019-05-28T14:22:37.185Z,16.80
2019-05-28T14:25:06.883Z,16.70
2019-05-28T14:27:35.705Z,16.60
2019-05-28T14:30:07.527Z,16.50
2019-05-28T14:32:36.164Z,16.40
2019-05-28T14:35:07.291Z,16.40
2019-05-28T14:37:35.918Z,16.40
2019-05-28T14:40:07.218Z,16.40
2019-05-28T14:42:35.859Z,16.40
2019-05-28T14:45:06.780Z,16.50
2019-05-28T14:47:35.438Z,16.50
2019-05-28T14:50:06.524Z,16.50
2019-05-28T14:52:35.162Z,16.50
2019-05-28T14:55:08.341Z,16.50
2019-05-28T14:57:37.114Z,16.50
2019-05-28T15:00:08.556Z,16.50
2019-05-28T15:02:37.228Z,16.50
2019-05-28T15:05:09.229Z,16.50
2019-05-28T15:07:37.954Z,16.50
2019-05-28T15:10:08.789Z,16.50
2019-05-28T15:12:37.377Z,16.50
2019-05-28T15:15:08.598Z,16.50
2019-05-28T15:17:37.218Z,16.50
2019-05-28T15:20:08.276Z,16.60
2019-05-28T15:22:37.189Z,16.60
2019-05-28T15:25:07.948Z,16.60
2019-05-28T15:27:36.592Z,16.50
2019-05-28T15:30:09.908Z,16.50
2019-05-28T15:32:38.740Z,16.60
2019-05-28T15:35:08.052Z,16.60
2019-05-28T15:37:36.652Z,16.60
2019-05-28T15:40:07.519Z,16.60
2019-05-28T15:42:36.600Z,16.60
2019-05-28T15:45:10.366Z,16.70
2019-05-28T15:47:39.492Z,16.70
2019-05-28T15:50:09.198Z,16.70
2019-05-28T15:52:37.791Z,16.60
2019-05-28T15:55:07.779Z,16.60
2019-05-28T15:57:36.514Z,16.60
2019-05-28T16:00:10.131Z,16.50
2019-05-28T16:02:38.853Z,16.50
2019-05-28T16:05:07.766Z,16.50
2019-05-28T16:07:36.414Z,16.50
2019-05-28T16:10:09.028Z,16.50
2019-05-28T16:12:37.597Z,16.60
2019-05-28T16:15:09.760Z,16.60
2019-05-28T16:17:38.322Z,16.60
2019-05-28T16:20:08.057Z,16.60
2019-05-28T16:22:36.700Z,16.60
2019-05-28T16:25:08.183Z,16.60
2019-05-28T16:27:36.823Z,16.50
2019-05-28T16:30:10.455Z,16.40
2019-05-28T16:32:39.094Z,16.40
2019-05-28T16:35:08.220Z,16.30
2019-05-28T16:37:36.878Z,16.30
2019-05-28T16:40:15.175Z,16.30
2019-05-28T16:42:37.648Z,16.30
2019-05-28T16:45:07.157Z,16.30
2019-05-28T16:47:35.748Z,16.30
2019-05-28T16:50:05.464Z,16.30
2019-05-28T16:52:34.055Z,16.30
2019-05-28T16:55:02.690Z,16.30
2019-05-28T16:57:31.275Z,16.30
2019-05-28T16:59:59.855Z,16.20
2019-05-28T17:02:28.823Z,16.20
2019-05-28T17:04:57.397Z,16.20
2019-05-28T17:07:25.943Z,16.10
2019-05-28T17:09:54.550Z,16.00
2019-05-28T17:12:23.109Z,16.10
2019-05-28T17:14:51.698Z,16.10
2019-05-28T17:17:20.280Z,16.10
2019-05-28T17:19:49.217Z,16.00
2019-05-28T17:22:17.767Z,16.00
2019-05-28T17:24:46.906Z,15.90
2019-05-28T17:27:15.726Z,15.90
2019-05-28T17:29:44.323Z,15.90
2019-05-28T17:32:12.897Z,15.80
2019-05-28T17:34:41.477Z,15.80
2019-05-28T17:37:10.042Z,15.80
2019-05-28T17:39:38.905Z,15.70
2019-05-28T17:42:07.631Z,15.70
2019-05-28T17:44:36.581Z,15.60
2019-05-28T17:47:05.149Z,15.50
2019-05-28T17:49:33.719Z,15.50
2019-05-28T17:52:02.275Z,15.40
2019-05-28T17:54:32.511Z,15.40
2019-05-28T17:57:01.459Z,15.30
2019-05-28T17:59:30.032Z,15.30
2019-05-28T18:01:58.596Z,15.30
2019-05-28T18:04:27.174Z,15.20
2019-05-28T18:06:55.735Z,15.20
2019-05-28T18:09:24.414Z,15.20
2019-05-28T18:11:53.773Z,15.20
2019-05-28T18:14:23.885Z,15.20
2019-05-28T18:16:52.605Z,15.10
2019-05-28T18:19:21.168Z,15.10
2019-05-28T18:21:49.774Z,15.10
2019-05-28T18:24:18.361Z,15.00
2019-05-28T18:26:46.933Z,15.00
2019-05-28T18:29:15.516Z,15.00
2019-05-28T18:31:44.368Z,15.00
2019-05-28T18:34:12.945Z,14.90
2019-05-28T18:36:41.842Z,14.80
2019-05-28T18:39:10.493Z,14.80
2019-05-28T18:41:39.073Z,14.80
2019-05-28T18:44:08.079Z,14.80
2019-05-28T18:46:37.449Z,14.80
2019-05-28T18:49:06.093Z,14.80
2019-05-28T18:51:38.136Z,14.70
2019-05-28T18:54:05.703Z,14.70
2019-05-28T18:56:34.298Z,14.70
2019-05-28T18:59:03.186Z,14.70
2019-05-28T19:01:32.297Z,14.70
2019-05-28T19:04:00.938Z,14.70
2019-05-28T19:06:29.672Z,14.70
2019-05-28T19:08:58.233Z,14.70
2019-05-28T19:11:37.390Z,14.60
2019-05-28T19:13:57.311Z,14.50
2019-05-28T19:16:26.015Z,14.50
2019-05-28T19:18:55.467Z,14.50
2019-05-28T19:21:24.309Z,14.40
2019-05-28T19:23:52.901Z,14.40
2019-05-28T19:26:21.561Z,14.40
2019-05-28T19:28:50.139Z,14.40
2019-05-28T19:31:18.812Z,14.40
2019-05-28T19:33:47.388Z,14.40
2019-05-28T19:36:17.053Z,14.30
2019-05-28T19:38:47.066Z,14.40
2019-05-28T19:41:15.808Z,14.30
2019-05-28T19:43:44.389Z,14.30
2019-05-28T19:46:12.998Z,14.20
2019-05-28T19:48:41.576Z,14.20
2019-05-28T19:51:10.161Z,14.20
2019-05-28T19:53:38.733Z,14.20
2019-05-28T19:56:07.431Z,14.20
2019-05-28T19:58:36.031Z,14.20
2019-05-28T20:01:05.028Z,14.10
2019-05-28T20:03:33.689Z,14.10
2019-05-28T20:06:02.254Z,14.10
2019-05-28T20:08:30.854Z,14.00
2019-05-28T20:10:59.791Z,14.10
2019-05-28T20:13:28.386Z,14.10
2019-05-28T20:15:57.112Z,14.10
2019-05-28T20:18:26.962Z,14.10
2019-05-28T20:20:55.916Z,14.10
2019-05-28T20:23:24.706Z,14.10
2019-05-28T20:25:54.437Z,14.10
2019-05-28T20:28:23.234Z,14.10
2019-05-28T20:30:51.895Z,14.10
2019-05-28T20:33:20.817Z,14.10
2019-05-28T20:35:49.387Z,14.10
2019-05-28T20:38:17.993Z,14.10
2019-05-28T20:40:46.657Z,14.10
2019-05-28T20:43:15.236Z,14.10
2019-05-28T20:45:43.887Z,14.00
2019-05-28T20:48:12.475Z,14.00
2019-05-28T20:50:41.514Z,13.90
2019-05-28T20:53:10.393Z,13.90
2019-05-28T20:55:39.043Z,13.90
2019-05-28T20:58:07.697Z,13.90
2019-05-28T21:00:36.270Z,13.80
2019-05-28T21:03:05.098Z,13.80
2019-05-28T21:05:33.697Z,13.60
2019-05-28T21:08:02.611Z,13.60
2019-05-28T21:10:31.253Z,13.50
2019-05-28T21:12:59.816Z,13.50
2019-05-28T21:15:28.475Z,13.40
2019-05-28T21:17:57.392Z,13.30
2019-05-28T21:20:26.115Z,13.20
2019-05-28T21:22:55.764Z,13.20
2019-05-28T21:25:24.520Z,13.10
2019-05-28T21:27:54.268Z,13.00
2019-05-28T21:30:23.466Z,12.90
2019-05-28T21:32:52.588Z,12.80
2019-05-28T21:35:21.350Z,12.80
2019-05-28T21:37:50.907Z,12.80
2019-05-28T21:40:20.249Z,12.80
2019-05-28T21:42:59.241Z,12.90
2019-05-28T21:45:19.721Z,12.90
2019-05-28T21:47:48.275Z,12.90
2019-05-28T21:50:17.315Z,12.80
2019-05-28T21:52:45.872Z,12.80
2019-05-28T21:55:14.901Z,12.80
2019-05-28T21:57:43.922Z,12.80
2019-05-28T22:00:32.147Z,12.80
2019-05-28T22:03:00.754Z,12.80
2019-05-28T22:05:29.406Z,12.80
2019-05-28T22:08:00.036Z,12.80
2019-05-28T22:10:35.008Z,12.80
2019-05-28T22:13:20.195Z,12.90
2019-05-28T22:15:42.947Z,12.90
2019-05-28T22:18:11.636Z,12.90
2019-05-28T22:20:52.822Z,13.00
2019-05-28T22:23:31.466Z,12.90
2019-05-28T22:26:07.030Z,12.90
2019-05-28T22:28:30.738Z,12.90
2019-05-28T22:30:59.724Z,12.80
2019-05-28T22:33:28.567Z,12.80
2019-05-28T22:35:57.232Z,12.70
2019-05-28T22:38:27.272Z,12.70
2019-05-28T22:41:04.523Z,12.70
2019-05-28T22:43:36.797Z,12.60
2019-05-28T22:46:05.394Z,12.60
2019-05-28T22:48:33.962Z,12.60
2019-05-28T22:51:03.599Z,12.60
2019-05-28T22:53:32.311Z,12.50
2019-05-28T22:56:03.501Z,12.50
2019-05-28T22:58:31.105Z,12.50
2019-05-28T23:01:00.388Z,12.50
2019-05-28T23:03:29.036Z,12.50
2019-05-28T23:05:57.620Z,12.50
2019-05-28T23:08:26.571Z,12.50
2019-05-28T23:10:56.910Z,12.50
2019-05-28T23:13:25.577Z,12.40
2019-05-28T23:15:54.199Z,12.40
2019-05-28T23:18:22.757Z,12.30
2019-05-28T23:20:51.335Z,12.30
2019-05-28T23:23:20.303Z,12.10
2019-05-28T23:25:48.953Z,12.10
2019-05-28T23:28:17.562Z,12.10
2019-05-28T23:30:46.083Z,12.00
2019-05-28T23:33:15.072Z,11.90
2019-05-28T23:35:43.884Z,11.90
2019-05-28T23:38:13.199Z,11.80
2019-05-28T23:40:41.929Z,11.80
2019-05-28T23:43:11.609Z,11.80
2019-05-28T23:45:40.464Z,11.90
2019-05-28T23:48:14.177Z,11.90
2019-05-28T23:50:39.699Z,11.90
2019-05-28T23:53:08.254Z,11.90
2019-05-28T23:55:36.832Z,11.80
2019-05-28T23:58:05.814Z,11.80
